• Join FlightAware (Why Join?)
  • Login
  • US Flag 
03:06PM EDT


 

Airport Tracker/Info


-or-


 

Live Flight TrackerFlight Track Log ✈ N319EE ✈ 30-Dec-2013 ✈ KPWM - KHPN

Flight Track Log - Related Links

Times and Time Zones

All times are in EST time to prevent confusion due to time zone crossing. See the N319EE flight status page for this flight to view local times or setup timezone preferences in your user account.

Time Position Orientation Groundspeed Altitude Reporting Facility
EST Latitude Longitude Course Direction KTS MPH feet Rate Location/Type
09:45AM 43.6028 -70.4594 231° Southwest 150 173 6,800  Level Boston Center
09:46AM 43.5775 -70.5031 231° Southwest 147 169 9,300 1,560 Climbing Boston Center
09:47AM 43.5517 -70.5461 230° Southwest 153 176 10,000 300 Climbing Boston Center
09:48AM 43.4364 -70.6003 230° Southwest  Level Estimated
09:48AM 43.5122 -70.6097 229° Southwest 206 237 10,000  Level Boston Center
09:49AM 43.4016 -70.6667 234° Southwest  Level FlightAware Approximate
09:49AM 43.4747 -70.6719 230° Southwest 211 243 10,000  Level Boston Center
09:50AM 43.3595 -70.7246 231° Southwest  Level Estimated
09:50AM 43.4356 -70.7353 230° Southwest 219 252 9,900  Level Boston Center
09:51AM 43.3956 -70.7989 229° Southwest 219 252 9,900  Level Boston Center
09:52AM 43.3558 -70.8639 230° Southwest 220 253 9,900  Level Boston Center
09:53AM 43.3131 -70.9319 229° Southwest 218 251 9,900  Level Boston Center
09:54AM 43.2750 -70.9925 229° Southwest 212 244 9,900  Level Boston Center
09:55AM 43.2372 -71.0544 230° Southwest 212 244 9,900  Level Boston Center
09:56AM 43.1975 -71.1178 229° Southwest 216 249 9,900  Level Boston Center
09:57AM 43.1586 -71.1794 229° Southwest 215 247 9,900  Level Boston Center
09:58AM 43.1175 -71.2447 229° Southwest 213 245 9,900  Level Boston Center
09:59AM 43.0789 -71.3061 229° Southwest 214 246 9,900  Level Boston Center
10:00AM 43.0333 -71.3667 224° Southwest 214 246 10,000  Climbing KA90
10:01AM 43.0000 -71.4333 236° Southwest 213 245 10,000  Level KA90
10:02AM 42.9628 -71.4906 228° Southwest 207 238 10,000  Level Boston Center
10:03AM 42.9256 -71.5494 229° Southwest 205 236 10,000  Level Boston Center
10:04AM 42.8869 -71.6094 229° Southwest 210 242 10,000  Level Boston Center
10:05AM 42.8478 -71.6728 230° Southwest 219 252 10,000  Level Boston Center
10:06AM 42.8058 -71.7381 229° Southwest 215 247 10,000  Level Boston Center
10:07AM 42.7669 -71.7989 229° Southwest 214 246 10,000  Level Boston Center
10:08AM 42.7250 -71.8581 226° Southwest 217 250 10,000 60 Level Boston Center
10:09AM 42.6950 -71.8761 204° Southwest 236 272 10,100  Climbing Boston Center
10:09AM 42.6656 -71.8908 200° South 227 261 10,000  Descending Boston Center
10:09AM 42.6417 -71.9072 207° Southwest 228 262 10,100 60 Climbing Boston Center
10:10AM 42.6067 -71.9244 200° South 229 264 10,100  Level Boston Center
10:10AM 42.5839 -71.9394 206° Southwest 228 262 10,100 -120 Level Boston Center
10:11AM 42.5456 -71.9617 203° Southwest 224 258 10,000 -120 Descending Boston Center
10:11AM 42.5211 -71.9756 203° Southwest 227 261 10,000  Level Boston Center
10:12AM 42.4872 -71.9967 205° Southwest 229 264 10,000  Level Boston Center
10:13AM 42.4647 -72.0111 205° Southwest 229 264 10,000  Level Boston Center
10:13AM 42.4281 -72.0311 202° Southwest 230 265 10,000  Level Boston Center
10:14AM 42.4058 -72.0486 210° Southwest 230 265 10,000  Level Boston Center
10:14AM 42.3714 -72.0675 202° Southwest 227 261 10,000  Level Boston Center
10:15AM 42.3475 -72.0833 206° Southwest 230 265 10,000  Level Boston Center
10:15AM 42.3117 -72.1028 202° Southwest 234 269 10,000  Level Boston Center
10:16AM 42.2897 -72.1153 203° Southwest 227 261 10,000  Level Boston Center
10:16AM 42.2492 -72.1397 204° Southwest 229 264 10,000  Level Boston Center
10:17AM 42.2236 -72.1558 205° Southwest 225 259 10,000  Level Boston Center
10:17AM 42.1917 -72.1736 202° Southwest 226 260 10,000  Level Boston Center
10:18AM 42.1606 -72.1914 203° Southwest 226 260 10,000  Level Boston Center
10:18AM 42.1347 -72.2089 207° Southwest 224 258 10,000  Level Boston Center
10:19AM 42.1042 -72.2267 203° Southwest 226 260 10,000  Level Boston Center
10:19AM 42.0772 -72.2431 204° Southwest 224 258 10,000  Level Boston Center
10:20AM 42.0503 -72.2597 205° Southwest 224 258 10,000  Level Boston Center
10:20AM 42.0194 -72.2769 203° Southwest 227 261 10,000  Level Boston Center
10:21AM 41.9919 -72.2942 205° Southwest 228 262 10,000  Level Boston Center
10:21AM 41.9617 -72.3117 203° Southwest 227 261 10,000  Level Boston Center
10:22AM 41.9386 -72.3244 202° Southwest 228 262 10,000  Level Boston Center
10:22AM 41.8992 -72.3492 205° Southwest 226 260 10,000  Level Boston Center
10:23AM 41.8819 -72.3592 203° Southwest 225 259 10,000  Level Boston Center
10:23AM 41.8431 -72.3828 204° Southwest 221 254 10,000  Level Boston Center
10:24AM 41.8256 -72.3942 206° Southwest 221 254 10,000 -540 Level Boston Center
10:24AM 41.7856 -72.4164 203° Southwest 226 260 9,500 -780 Descending Boston Center
10:25AM 41.7697 -72.4261 205° Southwest 237 273 9,300 -840 Descending Boston Center
10:25AM 41.7228 -72.4544 204° Southwest 246 283 8,700 -840 Descending Boston Center
10:26AM 41.6989 -72.4672 202° Southwest 253 291 8,400 -600 Descending Boston Center
10:26AM 41.6569 -72.4928 204° Southwest 257 296 8,100 -240 Descending Boston Center
10:27AM 41.5933 -72.5300 204° Southwest 248 285 8,000 -60 Descending Boston Center
10:28AM 41.5483 -72.5953 227° Southwest 226 260 8,000  Level Boston Center
10:29AM 41.5211 -72.6681 243° Southwest 220 253 8,000  Level Boston Center
10:30AM 41.4928 -72.7408 243° Southwest 221 254 8,000  Level Boston Center
10:31AM 41.4667 -72.8117 244° Southwest 215 247 8,000  Level Boston Center
10:32AM 41.4403 -72.8814 243° Southwest 212 244 8,000  Level Boston Center
10:33AM 41.4133 -72.9522 243° Southwest 214 246 8,000 -180 Level Boston Center
10:35AM 41.3850 -73.0292 244° Southwest 216 249 7,700 -1,260 Descending Boston Center
10:36AM 41.3500 -73.1000 237° Southwest 219 252 5,500 -1,860 Descending New York TRACON
10:37AM 41.3333 -73.1833 255° West 218 251 4,000 -780 Descending New York TRACON
10:38AM 41.3000 -73.2500 236° Southwest 224 258 4,000  Level New York TRACON
10:39AM 41.2667 -73.3167 236° Southwest 219 252 4,000  Level New York TRACON
10:40AM 41.2500 -73.4000 255° West 221 254 4,000 -60 Level New York TRACON
10:41AM 41.2167 -73.4667 236° Southwest 223 257 3,900 -420 Descending New York TRACON
10:42AM 41.1500 -73.4833 191° South 247 284 3,200 -480 Descending New York TRACON
10:43AM 41.0833 -73.5000 191° South 236 272 3,000 -300 Descending New York TRACON
10:44AM 41.0167 -73.5167 191° South 234 269 2,600 -600 Descending New York TRACON
10:45AM 40.9833 -73.5833 236° Southwest 198 228 1,900 -360 Descending New York TRACON
10:46AM 40.9833 -73.6333 270° West 168 193 1,900 -300 Level New York TRACON
10:47AM 41.0167 -73.6667 323° Northwest 133 153 1,300 -600 Descending New York TRACON
10:48AM 41.0500 -73.7000 323° Northwest 115 132 700 -600 Descending New York TRACON